Sierra, Nevada
Current Conditions -  °F | °C
As of 1:35 PM on Friday 24 Oct 2014 (Local Time) from KRTS Reporting Station
Clear Clear  
Wind Chill: 24°   Ceiling: Unl
Heat Index: 24°   Visibility: 10mi
Dew Point: -8°   Wind: 15mph
Humidity: 11%   Direction: 210°SSW
Pressure: 30.01"   Gusts: 23mph
Location:  39.7378°N, 119.889°W
Report Text: KRTS 242035Z AUTO 21013G20KT 10SM CLR 24/M08 A3001 RMK AO2
Loading
Personal Weather Stations






























Interactive Weather Map
Tropical Storm Tracking
New forecast layout! Learn more

10-Day Weather Forecast

Advertisements
Track Severe Weather on mobile